GOOD

Diourbel Airport

Diourbel, Senegal
METAR GOOD 230800Z 00000KT CAVOK 18/15 Q1010
Observed Flight Rules
Feb-23 @ 08:00 UTC (27 minutes ago) Visual Flight Rules
Wind Visibility Clouds
Calm 10,000+ meters
  • Clear skies
Temperatures Readings
Current 18°C / 64°F
Dewpoint 15°C / 59°F
Humidity 83%
Altimeter 29.82" Hg
Pressure 1010 hPa
Elevation 9
METAR GOOD 230800Z 00000KT CAVOK 18/15 Q1010
Observed Flight Rules
Feb-23 @ 08:00 UTC
(27 minutes ago)
VFR
Wind Visibility
Calm 10,000+ meters
Clouds
  • Clear skies
Temperature Dewpoint
18°C / 64°F 15°C / 59°F
Humidity Altimeter Pressure
83% 29.82" Hg 1010 hPa